地図

経路データ

SID SEASON NUMBER BASIN SUBBASIN NAME ISO_TIME NATURE LAT LON WMO_WIND WMO_PRES WMO_AGENCY TRACK_TYPE DIST2LAND LANDFALL IFLAG USA_AGENCY USA_ATCF_ID USA_LAT USA_LON USA_RECORD USA_STATUS USA_WIND USA_PRES USA_SSHS USA_R34_NE USA_R34_SE USA_R34_SW USA_R34_NW USA_R50_NE USA_R50_SE USA_R50_SW USA_R50_NW USA_R64_NE USA_R64_SE USA_R64_SW USA_R64_NW USA_POCI USA_ROCI USA_RMW USA_EYE TOKYO_LAT TOKYO_LON TOKYO_GRADE TOKYO_WIND TOKYO_PRES TOKYO_R50_DIR TOKYO_R50_LONG TOKYO_R50_SHORT TOKYO_R30_DIR TOKYO_R30_LONG TOKYO_R30_SHORT TOKYO_LAND CMA_LAT CMA_LON CMA_CAT CMA_WIND CMA_PRES HKO_LAT HKO_LON HKO_CAT HKO_WIND HKO_PRES NEWDELHI_LAT NEWDELHI_LON NEWDELHI_GRADE NEWDELHI_WIND NEWDELHI_PRES NEWDELHI_CI NEWDELHI_DP NEWDELHI_POCI REUNION_LAT REUNION_LON REUNION_TYPE REUNION_WIND REUNION_PRES REUNION_TNUM REUNION_CI REUNION_RMW REUNION_R34_NE REUNION_R34_SE REUNION_R34_SW REUNION_R34_NW REUNION_R50_NE REUNION_R50_SE REUNION_R50_SW REUNION_R50_NW REUNION_R64_NE REUNION_R64_SE REUNION_R64_SW REUNION_R64_NW BOM_LAT BOM_LON BOM_TYPE BOM_WIND BOM_PRES BOM_TNUM BOM_CI BOM_RMW BOM_R34_NE BOM_R34_SE BOM_R34_SW BOM_R34_NW BOM_R50_NE BOM_R50_SE BOM_R50_SW BOM_R50_NW BOM_R64_NE BOM_R64_SE BOM_R64_SW BOM_R64_NW BOM_ROCI BOM_POCI BOM_EYE BOM_POS_METHOD BOM_PRES_METHOD NADI_LAT NADI_LON NADI_CAT NADI_WIND NADI_PRES WELLINGTON_LAT WELLINGTON_LON WELLINGTON_WIND WELLINGTON_PRES DS824_LAT DS824_LON DS824_STAGE DS824_WIND DS824_PRES TD9636_LAT TD9636_LON TD9636_STAGE TD9636_WIND TD9636_PRES TD9635_LAT TD9635_LON TD9635_WIND TD9635_PRES TD9635_ROCI NEUMANN_LAT NEUMANN_LON NEUMANN_CLASS NEUMANN_WIND NEUMANN_PRES MLC_LAT MLC_LON MLC_CLASS MLC_WIND MLC_PRES USA_GUST BOM_GUST BOM_GUST_PER REUNION_GUST REUNION_GUST_PER USA_SEAHGT USA_SEARAD_NE USA_SEARAD_SE USA_SEARAD_SW USA_SEARAD_NW STORM_SPEED STORM_DIR
1968362S11113 1969 129 SI WA CHERI 1968-12-26 22:00:00 NR -11.0000 113.000 main 282 282 __________O___ -1 -11.0000 113.000 7 3 225
1968362S11113 1969 129 SI WA CHERI 1968-12-27 00:00:00 TS -11.0790 112.921 main 296 296 O________OP___ jtwc_sh SH091969 -11.1000 112.900 20 -1 -11.1000 112.900 TC 20 -11.0580 112.942 7 4 225
1968362S11113 1969 129 SI WA CHERI 1968-12-27 01:00:00 TS -11.1375 112.862 1003 bom main 296 296 P_____O__PP___ SH091969 -11.1344 112.866 20 -1 -11.3000 112.700 1003 -11.1344 112.866 TC 20 -11.0875 112.912 7 4 227
1968362S11113 1969 129 SI WA CHERI 1968-12-27 03:00:00 TS -11.2149 112.776 main 311 311 P_____P__PP___ SH091969 -11.2025 112.798 22 -1 -11.3852 112.562 -11.2025 112.798 TC 22 -11.1483 112.852 7 3 228
1968362S11113 1969 129 SI WA CHERI 1968-12-27 06:00:00 TS -11.3324 112.643 main 325 325 O_____P__OP_O_ jtwc_sh SH091969 -11.3000 112.700 25 -1 -11.5105 112.359 -11.3000 112.700 TC 25 -11.2469 112.753 7 -11.4000 112.600 TC 25 1001 4 229
1968362S11113 1969 129 SI WA CHERI 1968-12-27 09:00:00 TS -11.4493 112.498 main 336 347 P_____P__PP_P_ SH091969 -11.3925 112.607 25 -1 -11.6294 112.167 -11.3925 112.607 TC 25 -11.3588 112.641 7 -11.4975 112.438 TC 27 1000 4 230
1968362S11113 1969 129 SI WA CHERI 1968-12-27 10:00:00 TS -11.4876 112.452 main 347 347 P_____P__PO_P_ SH091969 -11.4254 112.575 25 -1 -11.6669 112.107 -11.4254 112.575 TC 25 -11.4000 112.600 1 20 -11.5309 112.388 TC 28 999 4 230
1968362S11113 1969 129 SI WA CHERI 1968-12-27 12:00:00 TS -11.5652 112.361 main 359 359 O_____P__OP_O_ jtwc_sh SH091969 -11.5000 112.500 25 -1 -11.7381 111.992 -11.5000 112.500 TC 25 -11.4881 112.512 1 20 -11.6000 112.300 TC 30 999 4 227
1968362S11113 1969 129 SI WA CHERI 1968-12-27 15:00:00 TS -11.6964 112.220 main 373 373 P_____P__PP_P_ SH091969 -11.6575 112.343 22 -1 -11.8328 111.842 -11.6575 112.343 TC 22 -11.6269 112.373 1 22 -11.7075 112.200 TC 32 998 4 226
1968362S11113 1969 129 SI WA CHERI 1968-12-27 18:00:00 TS -11.8139 112.093 main 383 383 O_____P__OP_O_ jtwc_sh SH091969 -11.8000 112.200 20 -1 -11.9099 111.722 -11.8000 112.200 TC 20 -11.7596 112.241 1 23 -11.8000 112.100 TC 35 997 3 230
1968362S11113 1969 129 SI WA CHERI 1968-12-27 21:00:00 TS -11.8847 111.996 main 393 393 P_____P__PP_P_ SH091969 -11.8650 112.135 20 -1 -11.9655 111.640 -11.8650 112.135 TC 20 -11.8705 112.130 1 24 -11.8575 111.943 TC 37 996 2 234
1968362S11113 1969 129 SI WA CHERI 1968-12-27 22:00:00 TS -11.9012 111.971 main 393 392 P_____P__PO_P_ SH091969 -11.8775 112.122 20 -1 -11.9787 111.622 -11.8775 112.122 TC 20 -11.9000 112.100 1 25 -11.8721 111.890 TC 38 995 2 238
1968362S11113 1969 129 SI WA CHERI 1968-12-28 00:00:00 TS -11.9311 111.916 main 392 392 O_____P__OP_O_ jtwc_sh SH091969 -11.9000 112.100 20 -1 -11.9961 111.602 -11.9000 112.100 TC 20 -11.9421 112.058 1 24 -11.9000 111.800 TC 40 995 2 238
1968362S11113 1969 129 SI WA CHERI 1968-12-28 01:00:00 TS -11.9483 111.886 995 bom main 392 392 P_____O__PP_P_ SH091969 -11.9193 112.081 19 -1 -12.0000 111.600 995 -11.9193 112.081 TC 19 -11.9578 112.042 1 23 -11.9193 111.769 TC 40 995 2 237
1968362S11113 1969 129 SI WA CHERI 1968-12-28 03:00:00 TS -11.9741 111.851 main 403 403 P_____P__PP_P_ SH091969 -11.9575 112.043 17 -1 -11.9984 111.613 -11.9575 112.043 TC 17 -11.9801 112.020 1 22 -11.9575 111.728 TC 40 995 1 226
1968362S11113 1969 129 SI WA CHERI 1968-12-28 06:00:00 TS -11.9957 111.828 main 403 403 O_____P__OP_O_ jtwc_sh SH091969 -12.0000 112.000 15 -1 -11.9778 111.664 -12.0000 112.000 TC 15 -11.9963 112.004 1 21 -12.0000 111.700 TC 40 995 0 0
1968362S11113 1969 129 SI WA CHERI 1968-12-28 09:00:00 TS -11.9946 111.835 main 403 403 P_____P__PP_P_ SH091969 -12.0075 111.993 15 -1 -11.9449 111.734 -12.0075 111.993 TC 15 -11.9999 112.000 1 20 -12.0075 111.692 TC 40 995 0 0
1968362S11113 1969 129 SI WA CHERI 1968-12-28 10:00:00 TS -11.9915 111.840 main 403 403 P_____P__PO_P_ SH091969 -12.0054 111.995 15 -1 -11.9330 111.758 -12.0054 111.995 TC 15 -12.0000 112.000 1 20 -12.0054 111.695 TC 40 995 0 0
1968362S11113 1969 129 SI WA CHERI 1968-12-28 12:00:00 TS -11.9829 111.856 main 403 403 O_____P__OP_O_ jtwc_sh SH091969 -12.0000 112.000 15 -1 -11.9102 111.803 -12.0000 112.000 TC 15 -11.9872 112.034 1 19 -12.0000 111.700 TC 40 995 0 64
1968362S11113 1969 129 SI WA CHERI 1968-12-28 15:00:00 TS -11.9743 111.876 main 403 403 P_____P__PP_P_ SH091969 -12.0000 112.008 17 -1 -11.8844 111.851 -12.0000 112.008 TC 17 -11.9614 112.091 1 17 -12.0000 111.700 TC 40 995 0 0
1968362S11113 1969 129 SI WA CHERI 1968-12-28 18:00:00 TS -11.9713 111.878 main 403 403 O_____P__OP_O_ jtwc_sh SH091969 -12.0000 112.000 20 -1 -11.8783 111.857 -12.0000 112.000 TC 20 -11.9498 112.113 1 16 -12.0000 111.700 TC 40 995 0 0
1968362S11113 1969 129 SI WA CHERI 1968-12-28 21:00:00 TS -11.9662 111.868 main 403 403 P_____P__PP_P_ SH091969 -11.9699 112.002 20 -1 -11.9024 111.803 -11.9699 112.002 TC 20 -11.9776 112.049 1 15 -11.9774 111.752 TC 40 995 0 269
1968362S11113 1969 129 SI WA CHERI 1968-12-28 22:00:00 TS -11.9720 111.849 main 403 403 P_____P__PO_P_ SH091969 -11.9683 111.986 20 -1 -11.9190 111.768 -11.9683 111.986 TC 20 -12.0000 112.000 1 15 -11.9762 111.755 TC 40 995 2 248
1968362S11113 1969 129 SI WA CHERI 1968-12-29 00:00:00 TS -12.0056 111.769 main 403 403 O_____P__OP_O_ jtwc_sh SH091969 -12.0000 111.900 20 -1 -11.9674 111.667 -12.0000 111.900 TC 20 -12.0662 111.849 1 15 -12.0000 111.700 TC 40 995 4 245
1968362S11113 1969 129 SI WA CHERI 1968-12-29 01:00:00 TS -12.0498 111.679 995 bom main 403 403 P_____O__PP_P_ SH091969 -12.0412 111.825 20 -1 -12.0000 111.600 995 4 -12.0412 111.825 TC 20 -12.1085 111.753 1 16 -12.0276 111.631 TC 40 995 7 243
1968362S11113 1969 129 SI WA CHERI 1968-12-29 03:00:00 TS -12.1617 111.456 main 426 426 P_____P__PP_P_ SH091969 -12.1625 111.617 20 -1 -12.0830 111.431 -12.1625 111.617 TC 20 -12.2095 111.527 1 17 -12.1125 111.425 TC 40 995 8 243
1968362S11113 1969 129 SI WA CHERI 1968-12-29 06:00:00 TS -12.3710 111.041 main 454 454 O_____P__OP_O_ jtwc_sh SH091969 -12.4000 111.200 20 -1 -12.2487 111.095 -12.4000 111.200 TC 20 -12.3970 111.121 1 18 -12.3000 111.000 TC 40 995 10 243
1968362S11113 1969 129 SI WA CHERI 1968-12-29 09:00:00 TS -12.6002 110.574 main 485 487 P_____P__PP_P_ SH091969 -12.6350 110.722 20 -1 -12.4575 110.672 -12.6350 110.722 TC 20 -12.6196 110.660 1 19 -12.5350 110.523 TC 40 995 10 243
1968362S11113 1969 129 SI WA CHERI 1968-12-29 10:00:00 TS -12.6828 110.407 main 500 500 P_____P__PO_P_ SH091969 -12.7200 110.550 20 -1 -12.5354 110.514 -12.7200 110.550 TC 20 -12.7000 110.500 1 20 -12.6225 110.350 TC 40 995 11 243
1968362S11113 1969 129 SI WA CHERI 1968-12-29 12:00:00 TS -12.8542 110.073 main 529 531 O_____P__OP_O_ jtwc_sh SH091969 -12.9000 110.200 20 -1 -12.7021 110.175 -12.9000 110.200 TC 20 -12.8656 110.203 1 20 -12.8000 110.000 TC 40 995 11 241
1968362S11113 1969 129 SI WA CHERI 1968-12-29 15:00:00 TS -13.1265 109.573 main 561 564 P_____P__PP_P_ SH091969 -13.1999 109.707 22 -1 -12.9752 109.619 -13.1999 109.707 TC 22 -13.1395 109.726 1 20 -13.0499 109.507 TC 37 995 11 241
1968362S11113 1969 129 SI WA CHERI 1968-12-29 18:00:00 TS -13.4046 109.052 main 608 611 O_____P__OP_O_ jtwc_sh SH091969 -13.5000 109.200 25 -1 -13.2698 109.015 -13.5000 109.200 TC 25 -13.4271 109.218 1 20 -13.3000 109.000 TC 35 996 12 242
1968362S11113 1969 129 SI WA CHERI 1968-12-29 21:00:00 TS -13.6783 108.521 main 660 660 P_____P__PP_P_ SH091969 -13.7649 108.657 25 -1 -13.5785 108.378 -13.7649 108.657 TC 25 -13.7100 108.683 1 20 -13.5503 108.460 TC 35 996 12 241
1968362S11113 1969 129 SI WA CHERI 1968-12-29 22:00:00 TS -13.7778 108.361 main 672 672 P_____P__PO_P_ SH091969 -13.8466 108.472 25 -1 -13.6833 108.160 -13.8466 108.472 TC 25 -13.8000 108.500 1 20 -13.6336 108.275 TC 35 996 11 240
1968362S11113 1969 129 SI WA CHERI 1968-12-30 00:00:00 TS -13.9577 108.025 main 695 695 O_____P__OP_O_ jtwc_sh SH091969 -14.0000 108.100 25 -1 -13.8943 107.721 -14.0000 108.100 TC 25 -13.9586 108.139 1 20 -13.8000 107.900 TC 35 996 11 238
1968362S11113 1969 129 SI WA CHERI 1968-12-30 01:00:00 TS -14.0536 107.898 997 bom main 707 707 P_____O__PP___ SH091969 -14.0697 107.919 25 -1 -14.0000 107.500 997 -14.0697 107.919 TC 25 -14.0350 107.954 1 21 TC 10 242
1968362S11113 1969 129 SI WA CHERI 1968-12-30 03:00:00 TS -14.1945 107.564 main 722 723 P________PP___ SH091969 -14.1998 107.557 27 -1 -14.1998 107.557 TC 27 -14.1839 107.578 1 22 TC 11 248
1968362S11113 1969 129 SI WA CHERI 1968-12-30 06:00:00 TS -14.4008 106.999 main 754 754 O________OP___ jtwc_sh SH091969 -14.4000 107.000 30 -1 -14.4000 107.000 TC 30 -14.4025 106.998 1 23 12 248
1968362S11113 1969 129 SI WA CHERI 1968-12-30 09:00:00 TS -14.6362 106.411 main 787 787 P________PP___ SH091969 -14.6423 106.415 30 -1 -14.6423 106.415 TC 30 -14.6239 106.402 1 24 12 247
1968362S11113 1969 129 SI WA CHERI 1968-12-30 10:00:00 TS -14.7185 106.209 main 803 803 P________PO___ SH091969 -14.7278 106.213 30 -1 -14.7278 106.213 TC 30 -14.7000 106.200 1 25 13 247
1968362S11113 1969 129 SI WA CHERI 1968-12-30 12:00:00 TS -14.8906 105.790 main 835 835 O________OP___ jtwc_sh SH091969 -14.9000 105.800 30 -1 -14.9000 105.800 TC 30 -14.8717 105.769 1 25 14 247
1968362S11113 1969 129 SI WA CHERI 1968-12-30 15:00:00 TS -15.1502 105.131 main 884 884 P________PP___ SH091969 -15.1575 105.143 30 -1 -15.1575 105.143 TC 30 -15.1357 105.109 1 27 14 248
1968362S11113 1969 129 SI WA CHERI 1968-12-30 18:00:00 TS -15.3978 104.489 main 919 919 O________OP___ jtwc_sh SH091969 -15.4000 104.500 30 -1 -15.4000 104.500 TC 30 -15.3934 104.466 1 28 13 248
1968362S11113 1969 129 SI WA CHERI 1968-12-30 21:00:00 TS -15.6196 103.901 main 957 957 P________PP___ SH091969 -15.6149 103.912 30 -1 -15.6149 103.912 TC 30 -15.6290 103.877 1 29 12 249
1968362S11113 1969 129 SI WA CHERI 1968-12-30 22:00:00 TS -15.6866 103.721 main 974 974 P________PO___ SH091969 -15.6799 103.732 30 -1 -15.6799 103.732 TC 30 -15.7000 103.700 1 30 10 249
1968362S11113 1969 129 SI WA CHERI 1968-12-31 00:00:00 TS -15.8074 103.393 main 995 995 O________OP___ jtwc_sh SH091969 -15.8000 103.400 30 -1 -15.8000 103.400 TC 30 -15.8222 103.379 1 30 9 249
1968362S11113 1969 129 SI WA CHERI 1968-12-31 03:00:00 TS -15.9652 102.962 main 1031 1035 P________PP___ SH091969 -15.9574 102.962 25 -1 -15.9574 102.962 TC 25 -15.9809 102.962 1 30 8 249
1968362S11113 1969 129 SI WA CHERI 1968-12-31 06:00:00 TS -16.1070 102.602 main 1058 1058 O________OP___ jtwc_sh SH091969 -16.1000 102.600 20 -1 -16.1000 102.600 TC 20 -16.1210 102.606 1 30 7 246
1968362S11113 1969 129 SI WA CHERI 1968-12-31 09:00:00 TS -16.2515 102.279 main 1091 1091 P________PP___ SH091969 -16.2499 102.270 17 -1 -16.2499 102.270 TC 17 -16.2547 102.296 1 30 7 244
1968362S11113 1969 129 SI WA CHERI 1968-12-31 10:00:00 TS -16.3000 102.182 main 1096 1096 P________PO___ SH091969 -16.3000 102.173 16 -1 -16.3000 102.173 TC 16 -16.3000 102.200 1 30 6 239
1968362S11113 1969 129 SI WA CHERI 1968-12-31 12:00:00 TS -16.3979 102.021 main 1115 1115 O________OP___ jtwc_sh SH091969 -16.4000 102.000 15 -1 -16.4000 102.000 TC 15 -16.3937 102.062 1 27 5 233
1968362S11113 1969 129 SI WA CHERI 1968-12-31 15:00:00 TS -16.5447 101.839 main 1135 1135 P________PP___ SH091969 -16.5498 101.815 17 -1 -16.5498 101.815 TC 17 -16.5345 101.888 1 23 4 260
1968362S11113 1969 129 SI WA CHERI 1968-12-31 18:00:00 TS -16.4704 101.595 main 1144 1144 O________OP___ jtwc_sh SH091969 -16.7000 101.600 20 -1 -16.7000 101.600 TC 20 -16.6818 101.678 1 19 8 268
1968362S11113 1969 129 SI WA CHERI 1968-12-31 21:00:00 TS -16.5689 100.958 main 1185 1191 P________PP___ SH091969 -16.8422 101.282 20 -1 -16.8422 101.282 TC 20 -16.8424 101.350 1 16 14 263
1968362S11113 1969 129 SI WA CHERI 1968-12-31 22:00:00 TS -16.5837 100.627 main 1206 1206 P________PO___ SH091969 -16.8918 101.143 20 -1 -16.8918 101.143 TC 20 -16.9000 101.200 1 15 18 261
1968362S11113 1969 129 SI WA CHERI 1969-01-01 00:00:00 TS -16.7085 100.012 main 1244 1244 O________OP___ jtwc_sh SH091969 -17.0000 100.800 20 -1 -17.0000 100.800 TC 20 -17.0143 100.813 1 15 17 255
1968362S11113 1969 129 SI WA CHERI 1969-01-01 03:00:00 TS -16.9480 99.1807 main 1305 1320 P________PP___ SH091969 -17.1922 100.140 25 -1 -17.1922 100.140 TC 25 -17.1978 100.094 1 17 17 254
1968362S11113 1969 129 SI WA CHERI 1969-01-01 06:00:00 TS -17.1653 98.2963 main 1385 1390 O________OP___ jtwc_sh SH091969 -17.4000 99.3000 30 -1 -17.4000 99.3000 TC 30 -17.3987 99.2481 1 18 18 256
1968362S11113 1969 129 SI WA CHERI 1969-01-01 09:00:00 TS -17.3671 97.4035 main 1458 1458 P________PP___ SH091969 -17.5925 98.3372 30 -1 -17.5925 98.3372 TC 30 -17.6206 98.3200 1 19 18 257
1968362S11113 1969 129 SI WA CHERI 1969-01-01 10:00:00 TS -17.4295 97.0961 main 1477 1477 P________PO___ SH091969 -17.6587 97.9936 30 -1 -17.6587 97.9936 TC 30 -17.7000 98.0000 1 20 18 257
1968362S11113 1969 129 SI WA CHERI 1969-01-01 12:00:00 TS -17.5575 96.5069 main 1534 1534 O________OP___ jtwc_sh SH091969 -17.8000 97.3000 30 -1 -17.8000 97.3000 TC 30 -17.8327 97.3595 1 21 17 256
1968362S11113 1969 129 SI WA CHERI 1969-01-01 15:00:00 TS -17.7627 95.6547 main 1606 1613 P________PP___ SH091969 -18.0196 96.2920 27 -1 -18.0196 96.2920 TC 27 -18.0497 96.3481 1 24 17 255
1968362S11113 1969 129 SI WA CHERI 1969-01-01 18:00:00 TS -17.9894 94.8023 main 1686 1686 O________OP___ jtwc_sh SH091969 -18.3000 95.3000 25 -1 -18.3000 95.3000 TC 25 -18.3155 95.3186 1 26 17 254
1968362S11113 1969 129 SI WA CHERI 1969-01-01 21:00:00 TS -18.2434 93.9303 main 1769 1777 P________PP___ SH091969 -18.6472 94.3196 25 -1 -18.6472 94.3196 TC 25 -18.6613 94.3187 1 29 17 253
1968362S11113 1969 129 SI WA CHERI 1969-01-01 22:00:00 TS -18.3366 93.6422 main 1799 1799 P________PO___ SH091969 -18.7852 94.0038 25 -1 -18.7852 94.0038 TC 25 -18.8000 94.0000 1 30 17 250
1968362S11113 1969 129 SI WA CHERI 1969-01-02 00:00:00 TS -18.5368 93.0783 main 1853 1868 O________OP___ jtwc_sh SH091969 -19.1000 93.4000 25 -1 -19.1000 93.4000 TC 25 -19.1087 93.4019 1 29 17 248
1968362S11113 1969 129 SI WA CHERI 1969-01-02 03:00:00 TS -18.8649 92.2499 main 1953 1953 P________PP___ SH091969 -19.6544 92.5769 22 -1 -19.6544 92.5769 TC 22 -19.6545 92.5484 1 27 17 245
1968362S11113 1969 129 SI WA CHERI 1969-01-02 06:00:00 TS -19.2350 91.4796 main 2030 2045 O________OP___ jtwc_sh SH091969 -20.3000 91.8000 20 -1 -20.3000 91.8000 TC 20 -20.2802 91.7368 1 26 16 241
1968362S11113 1969 129 SI WA CHERI 1969-01-02 09:00:00 TS -19.6424 90.7838 main 2115 2130 P________PP___ SH091969 -20.9847 90.9921 -1 -20.9847 90.9921 TC -20.9634 90.9556 1 25 15 237
1968362S11113 1969 129 SI WA CHERI 1969-01-02 10:00:00 TS -19.7845 90.5677 main 2145 2145 P________PO___ SH091969 -21.2222 90.7250 -1 -21.2222 90.7250 TC -21.2000 90.7000 1 25 14 242
1968362S11113 1969 129 SI WA CHERI 1969-01-02 12:00:00 TS -19.9631 90.1518 main 2191 2199 O________OP___ jtwc_sh SH091969 -21.7000 90.2000 -1 -21.7000 90.2000 TC -21.6824 90.1937 1 24 12 244
1968362S11113 1969 129 SI MM CHERI 1969-01-02 15:00:00 TS -20.2295 89.5871 main 2254 2254 P________PP___ SH091969 -22.7378 89.3630 -1 -22.4056 89.4413 TC -22.4243 89.4429 1 22 10 251
1968362S11113 1969 129 SI MM CHERI 1969-01-02 18:00:00 TS -20.3098 89.0996 main 2301 2301 O________OP___ jtwc_sh SH091969 -23.1000 88.7000 -1 -23.1000 88.7000 TC -23.1813 88.6970 1 21 9 273
1968362S11113 1969 129 SI MM CHERI 1969-01-02 21:00:00 TS -20.1795 88.6717 main 2327 2327 P_________P___ SH091969 -21.6168 88.4532 -1 TC -23.9452 87.9501 1 20 9 295
1968362S11113 1969 129 SI MM CHERI 1969-01-02 22:00:00 TS -20.0746 88.5512 main 2329 2329 P_________O___ SH091969 -20.9927 88.4117 -1 TC -24.2000 87.7000 1 20 8 296
1968362S11113 1969 129 SI MM CHERI 1969-01-03 00:00:00 TS -20.0053 88.2952 main 2347 2347 O_____________ jtwc_sh SH111969 -20.0000 88.3000 -1 1 8 256
1968362S11113 1969 129 SI MM CHERI 1969-01-03 03:00:00 TS -20.2379 87.8472 main 2397 2406 P_____________ SH111969 -19.9727 87.8889 -1 1 10 240
1968362S11113 1969 129 SI MM CHERI 1969-01-03 06:00:00 TS -20.5000 87.4000 main 2447 2447 O_____________ jtwc_sh SH111969 -20.5000 87.4000 -1 1 10 237
1968362S11113 1969 129 SI MM CHERI 1969-01-03 09:00:00 TS -20.7831 86.9450 main 2504 2504 P_____________ SH111969 -20.7849 86.9498 -1 1 10 235
1968362S11113 1969 129 SI MM CHERI 1969-01-03 12:00:00 TS -21.0965 86.4910 main 2554 2554 O_____________ jtwc_sh SH111969 -21.1000 86.5000 -1 11 233
1968362S11113 1969 129 SI MM CHERI 1969-01-03 15:00:00 TS -21.4326 86.0293 main 2611 2620 P_____________ SH111969 -21.4350 86.0349 -1 11 230
1968362S11113 1969 129 SI MM CHERI 1969-01-03 18:00:00 TS -21.8000 85.6000 main 2671 2671 O_____________ jtwc_sh SH111969 -21.8000 85.6000 -1 11 225
1968362S11113 1969 129 SI MM CHERI 1969-01-03 21:00:00 TS -22.1849 85.2254 main 2732 2732 P_____________ SH111969 -22.1774 85.2198 -1 10 218
1968362S11113 1969 129 SI MM CHERI 1969-01-04 00:00:00 TS -22.6120 84.9082 main 2786 2781 O_____________ jtwc_sh SH111969 -22.6000 84.9000 -1 11 211
1968362S11113 1969 129 SI MM CHERI 1969-01-04 03:00:00 TS -23.0911 84.6410 main 2781 2762 P_____________ SH111969 -23.0826 84.6354 -1 11 205
1968362S11113 1969 129 SI MM CHERI 1969-01-04 06:00:00 TS -23.6000 84.4000 main 2763 O_____________ jtwc_sh SH111969 -23.6000 84.4000 -1 11 203

IBTrACS Databaseについて

本データベースは、米国NOAAが公開する1842年以降の世界の熱帯低気圧のベストトラックデータアーカイブInternational Best Track Archive for Climate Stewardship (IBTrACS)を、ウェブで閲覧しやすい形式に変換したものです。

最終更新日:2021-12-08